sensor_id;sensor_type;location;lat;lon;timestamp;P1;durP1;ratioP1;P2;durP2;ratioP2
22107;SDS011;11220;48.812;9.128;2022-10-16T00:00:32;0.10;;;0.10;;
22107;SDS011;11220;48.812;9.128;2022-10-16T00:03:00;0.10;;;0.10;;
22107;SDS011;11220;48.812;9.128;2022-10-16T00:05:26;0.10;;;0.10;;
22107;SDS011;11220;48.812;9.128;2022-10-16T00:07:51;0.00;;;0.00;;
22107;SDS011;11220;48.812;9.128;2022-10-16T00:10:17;0.10;;;0.00;;
22107;SDS011;11220;48.812;9.128;2022-10-16T00:12:42;0.00;;;0.00;;
22107;SDS011;11220;48.812;9.128;2022-10-16T00:15:08;0.03;;;0.00;;
22107;SDS011;11220;48.812;9.128;2022-10-16T00:17:34;0.25;;;0.17;;
22107;SDS011;11220;48.812;9.128;2022-10-16T00:19:59;0.00;;;0.00;;
22107;SDS011;11220;48.812;9.128;2022-10-16T00:22:25;0.20;;;0.10;;
22107;SDS011;11220;48.812;9.128;2022-10-16T00:24:50;0.17;;;0.10;;
22107;SDS011;11220;48.812;9.128;2022-10-16T00:27:16;0.10;;;0.10;;
22107;SDS011;11220;48.812;9.128;2022-10-16T00:29:42;0.10;;;0.10;;
22107;SDS011;11220;48.812;9.128;2022-10-16T00:32:08;0.10;;;0.10;;
22107;SDS011;11220;48.812;9.128;2022-10-16T00:34:33;0.00;;;0.00;;
22107;SDS011;11220;48.812;9.128;2022-10-16T00:36:59;0.05;;;0.05;;
22107;SDS011;11220;48.812;9.128;2022-10-16T00:39:25;0.03;;;0.03;;
22107;SDS011;11220;48.812;9.128;2022-10-16T00:41:50;0.10;;;0.10;;
22107;SDS011;11220;48.812;9.128;2022-10-16T00:47:08;0.13;;;0.10;;
22107;SDS011;11220;48.812;9.128;2022-10-16T00:49:35;0.10;;;0.00;;
22107;SDS011;11220;48.812;9.128;2022-10-16T00:52:01;0.10;;;0.10;;
22107;SDS011;11220;48.812;9.128;2022-10-16T00:54:28;0.10;;;0.10;;
22107;SDS011;11220;48.812;9.128;2022-10-16T00:56:56;0.10;;;0.10;;
22107;SDS011;11220;48.812;9.128;2022-10-16T00:59:26;0.28;;;0.10;;
22107;SDS011;11220;48.812;9.128;2022-10-16T01:01:55;0.00;;;0.00;;
22107;SDS011;11220;48.812;9.128;2022-10-16T01:04:23;0.10;;;0.10;;
22107;SDS011;11220;48.812;9.128;2022-10-16T01:20:14;0.00;;;0.00;;
22107;SDS011;11220;48.812;9.128;2022-10-16T01:28:31;0.20;;;0.10;;
22107;SDS011;11220;48.812;9.128;2022-10-16T01:31:00;0.10;;;0.00;;
22107;SDS011;11220;48.812;9.128;2022-10-16T01:33:28;0.00;;;0.00;;
22107;SDS011;11220;48.812;9.128;2022-10-16T01:36:03;0.17;;;0.17;;
22107;SDS011;11220;48.812;9.128;2022-10-16T01:38:36;0.10;;;0.10;;
22107;SDS011;11220;48.812;9.128;2022-10-16T01:41:26;0.05;;;0.05;;
22107;SDS011;11220;48.812;9.128;2022-10-16T01:43:57;0.00;;;0.00;;
22107;SDS011;11220;48.812;9.128;2022-10-16T01:46:37;0.20;;;0.10;;
22107;SDS011;11220;48.812;9.128;2022-10-16T01:49:04;0.10;;;0.10;;
22107;SDS011;11220;48.812;9.128;2022-10-16T01:51:32;0.22;;;0.10;;
22107;SDS011;11220;48.812;9.128;2022-10-16T01:53:59;0.03;;;0.03;;
22107;SDS011;11220;48.812;9.128;2022-10-16T01:56:26;0.15;;;0.10;;
22107;SDS011;11220;48.812;9.128;2022-10-16T01:58:56;0.10;;;0.10;;
22107;SDS011;11220;48.812;9.128;2022-10-16T02:01:35;0.00;;;0.00;;
22107;SDS011;11220;48.812;9.128;2022-10-16T02:04:04;0.10;;;0.10;;
22107;SDS011;11220;48.812;9.128;2022-10-16T02:06:52;0.10;;;0.03;;
22107;SDS011;11220;48.812;9.128;2022-10-16T02:09:18;0.10;;;0.10;;
22107;SDS011;11220;48.812;9.128;2022-10-16T02:11:43;0.10;;;0.08;;
22107;SDS011;11220;48.812;9.128;2022-10-16T02:14:09;0.10;;;0.10;;
22107;SDS011;11220;48.812;9.128;2022-10-16T02:16:36;0.00;;;0.00;;
22107;SDS011;11220;48.812;9.128;2022-10-16T02:19:04;0.17;;;0.10;;
22107;SDS011;11220;48.812;9.128;2022-10-16T02:21:41;0.00;;;0.00;;
22107;SDS011;11220;48.812;9.128;2022-10-16T02:24:30;0.10;;;0.10;;
22107;SDS011;11220;48.812;9.128;2022-10-16T02:27:10;0.10;;;0.10;;
22107;SDS011;11220;48.812;9.128;2022-10-16T02:29:45;0.10;;;0.10;;
22107;SDS011;11220;48.812;9.128;2022-10-16T02:32:15;0.00;;;0.00;;
22107;SDS011;11220;48.812;9.128;2022-10-16T02:34:45;0.10;;;0.10;;
22107;SDS011;11220;48.812;9.128;2022-10-16T02:37:13;0.05;;;0.05;;
22107;SDS011;11220;48.812;9.128;2022-10-16T02:39:39;0.10;;;0.10;;
22107;SDS011;11220;48.812;9.128;2022-10-16T02:42:12;0.00;;;0.00;;
22107;SDS011;11220;48.812;9.128;2022-10-16T02:44:39;0.10;;;0.00;;
22107;SDS011;11220;48.812;9.128;2022-10-16T02:47:05;0.10;;;0.10;;
22107;SDS011;11220;48.812;9.128;2022-10-16T02:49:30;0.05;;;0.05;;
22107;SDS011;11220;48.812;9.128;2022-10-16T02:51:56;0.10;;;0.10;;
22107;SDS011;11220;48.812;9.128;2022-10-16T02:54:21;0.20;;;0.05;;
22107;SDS011;11220;48.812;9.128;2022-10-16T02:56:47;0.10;;;0.10;;
22107;SDS011;11220;48.812;9.128;2022-10-16T02:59:12;0.20;;;0.10;;
22107;SDS011;11220;48.812;9.128;2022-10-16T03:01:38;0.30;;;0.10;;
22107;SDS011;11220;48.812;9.128;2022-10-16T03:04:03;0.10;;;0.10;;
22107;SDS011;11220;48.812;9.128;2022-10-16T03:06:29;0.10;;;0.10;;
22107;SDS011;11220;48.812;9.128;2022-10-16T03:08:54;0.22;;;0.10;;
22107;SDS011;11220;48.812;9.128;2022-10-16T03:11:20;0.10;;;0.08;;
22107;SDS011;11220;48.812;9.128;2022-10-16T03:13:45;0.10;;;0.10;;
22107;SDS011;11220;48.812;9.128;2022-10-16T03:16:11;0.03;;;0.00;;
22107;SDS011;11220;48.812;9.128;2022-10-16T03:18:37;0.00;;;0.00;;
22107;SDS011;11220;48.812;9.128;2022-10-16T03:21:02;0.10;;;0.10;;
22107;SDS011;11220;48.812;9.128;2022-10-16T03:23:28;0.10;;;0.10;;
22107;SDS011;11220;48.812;9.128;2022-10-16T03:25:54;0.10;;;0.10;;
22107;SDS011;11220;48.812;9.128;2022-10-16T03:28:19;0.10;;;0.10;;
22107;SDS011;11220;48.812;9.128;2022-10-16T03:30:45;0.10;;;0.10;;
22107;SDS011;11220;48.812;9.128;2022-10-16T03:33:11;0.20;;;0.08;;
22107;SDS011;11220;48.812;9.128;2022-10-16T03:35:36;0.10;;;0.05;;
22107;SDS011;11220;48.812;9.128;2022-10-16T03:38:02;0.10;;;0.10;;
22107;SDS011;11220;48.812;9.128;2022-10-16T03:40:27;0.17;;;0.10;;
22107;SDS011;11220;48.812;9.128;2022-10-16T03:42:53;0.10;;;0.05;;
22107;SDS011;11220;48.812;9.128;2022-10-16T03:45:22;0.00;;;0.00;;
22107;SDS011;11220;48.812;9.128;2022-10-16T03:47:48;0.00;;;0.00;;
22107;SDS011;11220;48.812;9.128;2022-10-16T03:50:14;0.10;;;0.10;;
22107;SDS011;11220;48.812;9.128;2022-10-16T03:52:39;0.03;;;0.03;;
22107;SDS011;11220;48.812;9.128;2022-10-16T03:55:05;0.10;;;0.10;;
22107;SDS011;11220;48.812;9.128;2022-10-16T03:57:31;0.03;;;0.00;;
22107;SDS011;11220;48.812;9.128;2022-10-16T03:59:57;0.15;;;0.10;;
22107;SDS011;11220;48.812;9.128;2022-10-16T04:02:22;0.10;;;0.10;;
22107;SDS011;11220;48.812;9.128;2022-10-16T04:04:48;0.05;;;0.05;;
22107;SDS011;11220;48.812;9.128;2022-10-16T04:07:14;0.10;;;0.10;;
22107;SDS011;11220;48.812;9.128;2022-10-16T04:09:39;0.20;;;0.10;;
22107;SDS011;11220;48.812;9.128;2022-10-16T04:12:05;0.00;;;0.00;;
22107;SDS011;11220;48.812;9.128;2022-10-16T04:14:30;0.30;;;0.20;;
22107;SDS011;11220;48.812;9.128;2022-10-16T04:16:56;0.00;;;0.00;;
22107;SDS011;11220;48.812;9.128;2022-10-16T04:19:21;0.30;;;0.10;;
22107;SDS011;11220;48.812;9.128;2022-10-16T04:21:47;0.03;;;0.03;;
22107;SDS011;11220;48.812;9.128;2022-10-16T04:24:12;0.10;;;0.10;;
22107;SDS011;11220;48.812;9.128;2022-10-16T04:26:38;0.22;;;0.10;;
22107;SDS011;11220;48.812;9.128;2022-10-16T04:29:03;0.10;;;0.10;;
22107;SDS011;11220;48.812;9.128;2022-10-16T04:31:29;0.20;;;0.10;;
22107;SDS011;11220;48.812;9.128;2022-10-16T04:33:54;0.00;;;0.00;;
22107;SDS011;11220;48.812;9.128;2022-10-16T04:36:20;0.10;;;0.10;;
22107;SDS011;11220;48.812;9.128;2022-10-16T04:38:45;0.00;;;0.00;;
22107;SDS011;11220;48.812;9.128;2022-10-16T04:41:11;0.10;;;0.10;;
22107;SDS011;11220;48.812;9.128;2022-10-16T04:43:36;0.00;;;0.00;;
22107;SDS011;11220;48.812;9.128;2022-10-16T04:46:02;0.13;;;0.10;;
22107;SDS011;11220;48.812;9.128;2022-10-16T04:48:29;0.10;;;0.10;;
22107;SDS011;11220;48.812;9.128;2022-10-16T04:50:55;0.10;;;0.10;;
22107;SDS011;11220;48.812;9.128;2022-10-16T04:53:21;0.30;;;0.20;;
22107;SDS011;11220;48.812;9.128;2022-10-16T04:55:47;0.17;;;0.10;;
22107;SDS011;11220;48.812;9.128;2022-10-16T04:58:13;0.10;;;0.00;;
22107;SDS011;11220;48.812;9.128;2022-10-16T05:00:38;0.10;;;0.10;;
22107;SDS011;11220;48.812;9.128;2022-10-16T05:03:04;0.00;;;0.00;;
22107;SDS011;11220;48.812;9.128;2022-10-16T05:05:33;0.10;;;0.10;;
22107;SDS011;11220;48.812;9.128;2022-10-16T05:07:58;0.08;;;0.00;;
22107;SDS011;11220;48.812;9.128;2022-10-16T05:10:24;0.10;;;0.10;;
22107;SDS011;11220;48.812;9.128;2022-10-16T05:12:49;0.52;;;0.10;;
22107;SDS011;11220;48.812;9.128;2022-10-16T05:15:16;0.10;;;0.10;;
22107;SDS011;11220;48.812;9.128;2022-10-16T05:17:42;0.28;;;0.10;;
22107;SDS011;11220;48.812;9.128;2022-10-16T05:20:07;0.10;;;0.10;;
22107;SDS011;11220;48.812;9.128;2022-10-16T05:22:33;0.00;;;0.00;;
22107;SDS011;11220;48.812;9.128;2022-10-16T05:24:59;0.10;;;0.10;;
22107;SDS011;11220;48.812;9.128;2022-10-16T05:27:24;0.10;;;0.10;;
22107;SDS011;11220;48.812;9.128;2022-10-16T05:29:50;0.10;;;0.10;;
22107;SDS011;11220;48.812;9.128;2022-10-16T05:32:16;0.10;;;0.10;;
22107;SDS011;11220;48.812;9.128;2022-10-16T05:34:42;0.10;;;0.10;;
22107;SDS011;11220;48.812;9.128;2022-10-16T05:37:08;0.00;;;0.00;;
22107;SDS011;11220;48.812;9.128;2022-10-16T05:39:34;0.20;;;0.10;;
22107;SDS011;11220;48.812;9.128;2022-10-16T05:42:01;0.15;;;0.10;;
22107;SDS011;11220;48.812;9.128;2022-10-16T05:44:27;0.00;;;0.00;;
22107;SDS011;11220;48.812;9.128;2022-10-16T05:46:53;0.10;;;0.10;;
22107;SDS011;11220;48.812;9.128;2022-10-16T05:49:18;0.10;;;0.10;;
22107;SDS011;11220;48.812;9.128;2022-10-16T05:51:44;0.28;;;0.20;;
22107;SDS011;11220;48.812;9.128;2022-10-16T05:54:09;0.10;;;0.10;;
22107;SDS011;11220;48.812;9.128;2022-10-16T05:56:35;0.10;;;0.10;;
22107;SDS011;11220;48.812;9.128;2022-10-16T05:59:02;0.00;;;0.00;;
22107;SDS011;11220;48.812;9.128;2022-10-16T06:01:28;0.00;;;0.00;;
22107;SDS011;11220;48.812;9.128;2022-10-16T06:03:55;0.10;;;0.08;;
22107;SDS011;11220;48.812;9.128;2022-10-16T06:06:23;0.03;;;0.03;;
22107;SDS011;11220;48.812;9.128;2022-10-16T06:08:50;0.15;;;0.15;;
22107;SDS011;11220;48.812;9.128;2022-10-16T06:11:24;0.10;;;0.10;;
22107;SDS011;11220;48.812;9.128;2022-10-16T06:13:52;0.10;;;0.10;;
22107;SDS011;11220;48.812;9.128;2022-10-16T06:16:18;0.60;;;0.10;;
22107;SDS011;11220;48.812;9.128;2022-10-16T06:18:44;0.10;;;0.10;;
22107;SDS011;11220;48.812;9.128;2022-10-16T06:21:11;0.10;;;0.10;;
22107;SDS011;11220;48.812;9.128;2022-10-16T06:23:45;0.20;;;0.10;;
22107;SDS011;11220;48.812;9.128;2022-10-16T06:26:15;0.10;;;0.10;;
22107;SDS011;11220;48.812;9.128;2022-10-16T06:28:42;0.10;;;0.08;;
22107;SDS011;11220;48.812;9.128;2022-10-16T06:31:08;0.08;;;0.00;;
22107;SDS011;11220;48.812;9.128;2022-10-16T06:33:35;0.03;;;0.03;;
22107;SDS011;11220;48.812;9.128;2022-10-16T06:36:02;0.10;;;0.10;;
22107;SDS011;11220;48.812;9.128;2022-10-16T06:38:29;0.10;;;0.10;;
22107;SDS011;11220;48.812;9.128;2022-10-16T06:40:55;0.30;;;0.10;;
22107;SDS011;11220;48.812;9.128;2022-10-16T06:43:21;0.20;;;0.10;;
22107;SDS011;11220;48.812;9.128;2022-10-16T06:45:51;0.10;;;0.10;;
22107;SDS011;11220;48.812;9.128;2022-10-16T06:48:20;0.10;;;0.10;;
22107;SDS011;11220;48.812;9.128;2022-10-16T06:53:30;0.20;;;0.20;;
22107;SDS011;11220;48.812;9.128;2022-10-16T06:58:35;0.25;;;0.10;;
22107;SDS011;11220;48.812;9.128;2022-10-16T07:01:00;0.20;;;0.10;;
22107;SDS011;11220;48.812;9.128;2022-10-16T07:03:26;0.10;;;0.10;;
22107;SDS011;11220;48.812;9.128;2022-10-16T07:05:51;0.15;;;0.10;;
22107;SDS011;11220;48.812;9.128;2022-10-16T07:08:17;0.15;;;0.03;;
22107;SDS011;11220;48.812;9.128;2022-10-16T07:10:42;0.17;;;0.10;;
22107;SDS011;11220;48.812;9.128;2022-10-16T07:13:08;0.10;;;0.10;;
22107;SDS011;11220;48.812;9.128;2022-10-16T07:15:33;0.10;;;0.10;;
22107;SDS011;11220;48.812;9.128;2022-10-16T07:17:59;0.08;;;0.08;;
22107;SDS011;11220;48.812;9.128;2022-10-16T07:20:25;0.10;;;0.10;;
22107;SDS011;11220;48.812;9.128;2022-10-16T07:22:50;0.22;;;0.10;;
22107;SDS011;11220;48.812;9.128;2022-10-16T07:25:17;0.10;;;0.10;;
22107;SDS011;11220;48.812;9.128;2022-10-16T07:27:42;0.10;;;0.10;;
22107;SDS011;11220;48.812;9.128;2022-10-16T07:30:08;0.17;;;0.10;;
22107;SDS011;11220;48.812;9.128;2022-10-16T07:32:34;0.15;;;0.10;;
22107;SDS011;11220;48.812;9.128;2022-10-16T07:35:00;0.13;;;0.10;;
22107;SDS011;11220;48.812;9.128;2022-10-16T07:37:25;0.30;;;0.10;;
22107;SDS011;11220;48.812;9.128;2022-10-16T07:39:51;0.08;;;0.03;;
22107;SDS011;11220;48.812;9.128;2022-10-16T07:42:16;0.10;;;0.10;;
22107;SDS011;11220;48.812;9.128;2022-10-16T07:44:42;0.10;;;0.10;;
22107;SDS011;11220;48.812;9.128;2022-10-16T07:47:09;0.22;;;0.10;;
22107;SDS011;11220;48.812;9.128;2022-10-16T07:49:34;0.10;;;0.10;;
22107;SDS011;11220;48.812;9.128;2022-10-16T07:52:00;0.80;;;0.15;;
22107;SDS011;11220;48.812;9.128;2022-10-16T07:54:25;0.10;;;0.10;;
22107;SDS011;11220;48.812;9.128;2022-10-16T07:56:51;0.10;;;0.10;;
22107;SDS011;11220;48.812;9.128;2022-10-16T07:59:16;0.10;;;0.10;;
22107;SDS011;11220;48.812;9.128;2022-10-16T08:01:42;0.10;;;0.10;;
22107;SDS011;11220;48.812;9.128;2022-10-16T08:04:08;0.10;;;0.10;;
22107;SDS011;11220;48.812;9.128;2022-10-16T08:06:35;0.10;;;0.10;;
22107;SDS011;11220;48.812;9.128;2022-10-16T08:09:02;0.10;;;0.08;;
22107;SDS011;11220;48.812;9.128;2022-10-16T08:11:28;0.10;;;0.10;;
22107;SDS011;11220;48.812;9.128;2022-10-16T08:13:53;0.08;;;0.08;;
22107;SDS011;11220;48.812;9.128;2022-10-16T08:16:19;0.10;;;0.10;;
22107;SDS011;11220;48.812;9.128;2022-10-16T08:18:45;0.10;;;0.10;;
22107;SDS011;11220;48.812;9.128;2022-10-16T08:21:15;0.08;;;0.08;;
22107;SDS011;11220;48.812;9.128;2022-10-16T08:23:42;0.10;;;0.10;;
22107;SDS011;11220;48.812;9.128;2022-10-16T08:26:09;0.20;;;0.20;;
22107;SDS011;11220;48.812;9.128;2022-10-16T08:28:35;0.40;;;0.30;;
22107;SDS011;11220;48.812;9.128;2022-10-16T08:31:04;0.28;;;0.20;;
22107;SDS011;11220;48.812;9.128;2022-10-16T08:33:38;0.30;;;0.30;;
22107;SDS011;11220;48.812;9.128;2022-10-16T08:36:05;0.80;;;0.30;;
22107;SDS011;11220;48.812;9.128;2022-10-16T08:38:31;0.20;;;0.20;;
22107;SDS011;11220;48.812;9.128;2022-10-16T08:41:03;0.25;;;0.20;;
22107;SDS011;11220;48.812;9.128;2022-10-16T08:46:43;0.32;;;0.30;;
22107;SDS011;11220;48.812;9.128;2022-10-16T08:49:18;0.38;;;0.20;;
22107;SDS011;11220;48.812;9.128;2022-10-16T08:51:43;0.30;;;0.30;;
22107;SDS011;11220;48.812;9.128;2022-10-16T08:56:46;0.40;;;0.40;;
22107;SDS011;11220;48.812;9.128;2022-10-16T08:59:11;0.20;;;0.20;;
22107;SDS011;11220;48.812;9.128;2022-10-16T09:01:41;0.20;;;0.20;;
22107;SDS011;11220;48.812;9.128;2022-10-16T09:07:04;0.45;;;0.30;;
22107;SDS011;11220;48.812;9.128;2022-10-16T09:15:07;0.28;;;0.20;;
22107;SDS011;11220;48.812;9.128;2022-10-16T09:23:00;0.20;;;0.10;;
22107;SDS011;11220;48.812;9.128;2022-10-16T09:25:37;0.38;;;0.20;;
22107;SDS011;11220;48.812;9.128;2022-10-16T09:28:04;0.30;;;0.20;;
22107;SDS011;11220;48.812;9.128;2022-10-16T09:30:30;0.20;;;0.20;;
22107;SDS011;11220;48.812;9.128;2022-10-16T09:32:57;0.13;;;0.13;;
22107;SDS011;11220;48.812;9.128;2022-10-16T09:35:42;0.20;;;0.20;;
22107;SDS011;11220;48.812;9.128;2022-10-16T09:38:20;0.20;;;0.10;;
22107;SDS011;11220;48.812;9.128;2022-10-16T09:40:47;0.10;;;0.10;;
22107;SDS011;11220;48.812;9.128;2022-10-16T09:43:47;0.40;;;0.30;;
22107;SDS011;11220;48.812;9.128;2022-10-16T09:46:08;0.10;;;0.10;;
22107;SDS011;11220;48.812;9.128;2022-10-16T09:48:49;0.10;;;0.10;;
22107;SDS011;11220;48.812;9.128;2022-10-16T09:51:21;0.20;;;0.10;;
22107;SDS011;11220;48.812;9.128;2022-10-16T09:53:59;0.10;;;0.10;;
22107;SDS011;11220;48.812;9.128;2022-10-16T09:56:28;0.22;;;0.22;;
22107;SDS011;11220;48.812;9.128;2022-10-16T09:58:57;0.10;;;0.10;;
22107;SDS011;11220;48.812;9.128;2022-10-16T10:01:29;0.25;;;0.10;;
22107;SDS011;11220;48.812;9.128;2022-10-16T10:04:00;0.20;;;0.20;;
22107;SDS011;11220;48.812;9.128;2022-10-16T10:06:31;0.30;;;0.30;;
22107;SDS011;11220;48.812;9.128;2022-10-16T10:11:42;0.20;;;0.20;;
22107;SDS011;11220;48.812;9.128;2022-10-16T10:14:15;0.20;;;0.20;;
22107;SDS011;11220;48.812;9.128;2022-10-16T10:16:43;0.30;;;0.25;;
22107;SDS011;11220;48.812;9.128;2022-10-16T10:19:13;0.22;;;0.20;;
22107;SDS011;11220;48.812;9.128;2022-10-16T10:21:47;0.28;;;0.28;;
22107;SDS011;11220;48.812;9.128;2022-10-16T10:24:16;0.20;;;0.10;;
22107;SDS011;11220;48.812;9.128;2022-10-16T10:32:20;0.20;;;0.20;;
22107;SDS011;11220;48.812;9.128;2022-10-16T10:38:09;0.45;;;0.20;;
22107;SDS011;11220;48.812;9.128;2022-10-16T10:46:55;0.25;;;0.20;;
22107;SDS011;11220;48.812;9.128;2022-10-16T10:59:37;0.63;;;0.20;;
22107;SDS011;11220;48.812;9.128;2022-10-16T11:05:16;0.20;;;0.20;;
22107;SDS011;11220;48.812;9.128;2022-10-16T11:08:18;0.20;;;0.20;;
22107;SDS011;11220;48.812;9.128;2022-10-16T11:10:57;0.10;;;0.10;;
22107;SDS011;11220;48.812;9.128;2022-10-16T11:13:31;0.10;;;0.10;;
22107;SDS011;11220;48.812;9.128;2022-10-16T11:16:06;0.17;;;0.10;;
22107;SDS011;11220;48.812;9.128;2022-10-16T11:19:10;0.20;;;0.20;;
22107;SDS011;11220;48.812;9.128;2022-10-16T11:22:06;0.20;;;0.20;;
22107;SDS011;11220;48.812;9.128;2022-10-16T11:24:55;0.25;;;0.20;;
22107;SDS011;11220;48.812;9.128;2022-10-16T11:27:41;0.68;;;0.20;;
22107;SDS011;11220;48.812;9.128;2022-10-16T11:30:21;0.20;;;0.20;;
22107;SDS011;11220;48.812;9.128;2022-10-16T11:38:12;0.20;;;0.20;;
22107;SDS011;11220;48.812;9.128;2022-10-16T11:40:40;0.20;;;0.20;;
22107;SDS011;11220;48.812;9.128;2022-10-16T11:43:13;0.20;;;0.20;;
22107;SDS011;11220;48.812;9.128;2022-10-16T11:45:54;0.10;;;0.10;;
22107;SDS011;11220;48.812;9.128;2022-10-16T11:54:23;0.10;;;0.10;;
22107;SDS011;11220;48.812;9.128;2022-10-16T11:57:21;0.30;;;0.22;;
22107;SDS011;11220;48.812;9.128;2022-10-16T11:59:55;0.20;;;0.20;;
22107;SDS011;11220;48.812;9.128;2022-10-16T12:02:44;0.20;;;0.20;;
22107;SDS011;11220;48.812;9.128;2022-10-16T12:10:36;0.20;;;0.17;;
22107;SDS011;11220;48.812;9.128;2022-10-16T12:13:03;0.10;;;0.10;;
22107;SDS011;11220;48.812;9.128;2022-10-16T12:15:31;0.28;;;0.22;;
22107;SDS011;11220;48.812;9.128;2022-10-16T12:17:58;0.20;;;0.20;;
22107;SDS011;11220;48.812;9.128;2022-10-16T12:20:28;0.20;;;0.20;;
22107;SDS011;11220;48.812;9.128;2022-10-16T12:22:57;0.10;;;0.10;;
22107;SDS011;11220;48.812;9.128;2022-10-16T12:25:34;0.20;;;0.20;;
22107;SDS011;11220;48.812;9.128;2022-10-16T12:28:06;0.30;;;0.30;;
22107;SDS011;11220;48.812;9.128;2022-10-16T12:30:52;0.30;;;0.22;;
22107;SDS011;11220;48.812;9.128;2022-10-16T12:35:53;0.10;;;0.08;;
22107;SDS011;11220;48.812;9.128;2022-10-16T12:38:21;0.20;;;0.20;;
22107;SDS011;11220;48.812;9.128;2022-10-16T12:41:29;0.30;;;0.20;;
22107;SDS011;11220;48.812;9.128;2022-10-16T12:44:00;0.20;;;0.20;;
22107;SDS011;11220;48.812;9.128;2022-10-16T12:49:17;0.50;;;0.10;;
22107;SDS011;11220;48.812;9.128;2022-10-16T12:51:53;0.10;;;0.10;;
22107;SDS011;11220;48.812;9.128;2022-10-16T12:54:35;0.10;;;0.10;;
22107;SDS011;11220;48.812;9.128;2022-10-16T13:00:00;0.47;;;0.20;;
22107;SDS011;11220;48.812;9.128;2022-10-16T13:05:23;0.20;;;0.20;;
22107;SDS011;11220;48.812;9.128;2022-10-16T13:19:06;0.28;;;0.10;;
22107;SDS011;11220;48.812;9.128;2022-10-16T13:22:05;0.40;;;0.32;;
22107;SDS011;11220;48.812;9.128;2022-10-16T13:28:00;0.30;;;0.30;;
22107;SDS011;11220;48.812;9.128;2022-10-16T13:30:39;0.38;;;0.30;;
22107;SDS011;11220;48.812;9.128;2022-10-16T13:33:07;0.22;;;0.20;;
22107;SDS011;11220;48.812;9.128;2022-10-16T13:35:46;0.10;;;0.10;;
22107;SDS011;11220;48.812;9.128;2022-10-16T13:40:50;0.30;;;0.20;;
22107;SDS011;11220;48.812;9.128;2022-10-16T13:43:28;0.10;;;0.10;;
22107;SDS011;11220;48.812;9.128;2022-10-16T13:46:03;0.22;;;0.22;;
22107;SDS011;11220;48.812;9.128;2022-10-16T13:48:31;0.40;;;0.25;;
22107;SDS011;11220;48.812;9.128;2022-10-16T13:50:58;0.28;;;0.20;;
22107;SDS011;11220;48.812;9.128;2022-10-16T13:53:40;0.40;;;0.20;;
22107;SDS011;11220;48.812;9.128;2022-10-16T13:56:07;0.22;;;0.22;;
22107;SDS011;11220;48.812;9.128;2022-10-16T14:01:03;0.32;;;0.30;;
22107;SDS011;11220;48.812;9.128;2022-10-16T14:03:30;0.43;;;0.38;;
22107;SDS011;11220;48.812;9.128;2022-10-16T14:05:58;0.73;;;0.30;;
22107;SDS011;11220;48.812;9.128;2022-10-16T14:08:26;0.68;;;0.40;;
22107;SDS011;11220;48.812;9.128;2022-10-16T14:10:57;0.40;;;0.30;;
22107;SDS011;11220;48.812;9.128;2022-10-16T14:13:28;0.38;;;0.30;;
22107;SDS011;11220;48.812;9.128;2022-10-16T14:15:57;0.32;;;0.20;;
22107;SDS011;11220;48.812;9.128;2022-10-16T14:18:27;0.40;;;0.30;;
22107;SDS011;11220;48.812;9.128;2022-10-16T14:20:54;0.20;;;0.20;;
22107;SDS011;11220;48.812;9.128;2022-10-16T14:25:45;0.85;;;0.40;;
22107;SDS011;11220;48.812;9.128;2022-10-16T14:28:18;0.20;;;0.20;;
22107;SDS011;11220;48.812;9.128;2022-10-16T14:30:56;0.60;;;0.35;;
22107;SDS011;11220;48.812;9.128;2022-10-16T14:38:36;0.60;;;0.30;;
22107;SDS011;11220;48.812;9.128;2022-10-16T14:41:04;1.00;;;0.30;;
22107;SDS011;11220;48.812;9.128;2022-10-16T14:43:34;0.30;;;0.30;;
22107;SDS011;11220;48.812;9.128;2022-10-16T14:46:07;0.75;;;0.30;;
22107;SDS011;11220;48.812;9.128;2022-10-16T14:48:49;0.13;;;0.13;;
22107;SDS011;11220;48.812;9.128;2022-10-16T14:51:16;0.60;;;0.28;;
22107;SDS011;11220;48.812;9.128;2022-10-16T14:53:43;0.38;;;0.20;;
22107;SDS011;11220;48.812;9.128;2022-10-16T14:56:17;0.20;;;0.20;;
22107;SDS011;11220;48.812;9.128;2022-10-16T14:58:45;0.43;;;0.40;;
22107;SDS011;11220;48.812;9.128;2022-10-16T15:01:11;0.17;;;0.13;;
22107;SDS011;11220;48.812;9.128;2022-10-16T15:03:37;0.60;;;0.30;;
22107;SDS011;11220;48.812;9.128;2022-10-16T15:06:03;0.30;;;0.20;;
22107;SDS011;11220;48.812;9.128;2022-10-16T15:08:34;0.50;;;0.50;;
22107;SDS011;11220;48.812;9.128;2022-10-16T15:10:59;0.90;;;0.30;;
22107;SDS011;11220;48.812;9.128;2022-10-16T15:13:25;0.30;;;0.30;;
22107;SDS011;11220;48.812;9.128;2022-10-16T15:15:51;0.30;;;0.30;;
22107;SDS011;11220;48.812;9.128;2022-10-16T15:18:18;0.32;;;0.30;;
22107;SDS011;11220;48.812;9.128;2022-10-16T15:20:48;0.57;;;0.30;;
22107;SDS011;11220;48.812;9.128;2022-10-16T15:23:16;0.55;;;0.28;;
22107;SDS011;11220;48.812;9.128;2022-10-16T15:25:45;0.38;;;0.30;;
22107;SDS011;11220;48.812;9.128;2022-10-16T15:28:12;0.45;;;0.30;;
22107;SDS011;11220;48.812;9.128;2022-10-16T15:30:39;0.52;;;0.30;;
22107;SDS011;11220;48.812;9.128;2022-10-16T15:33:09;0.73;;;0.40;;
22107;SDS011;11220;48.812;9.128;2022-10-16T15:35:38;0.70;;;0.28;;
22107;SDS011;11220;48.812;9.128;2022-10-16T15:38:04;0.50;;;0.30;;
22107;SDS011;11220;48.812;9.128;2022-10-16T15:40:29;0.30;;;0.30;;
22107;SDS011;11220;48.812;9.128;2022-10-16T15:42:55;0.45;;;0.30;;
22107;SDS011;11220;48.812;9.128;2022-10-16T15:45:20;0.50;;;0.30;;
22107;SDS011;11220;48.812;9.128;2022-10-16T15:47:46;0.22;;;0.22;;
22107;SDS011;11220;48.812;9.128;2022-10-16T15:50:12;0.30;;;0.25;;
22107;SDS011;11220;48.812;9.128;2022-10-16T15:52:39;0.30;;;0.30;;
22107;SDS011;11220;48.812;9.128;2022-10-16T15:55:07;0.30;;;0.20;;
22107;SDS011;11220;48.812;9.128;2022-10-16T15:57:33;0.35;;;0.25;;
22107;SDS011;11220;48.812;9.128;2022-10-16T15:59:59;0.30;;;0.30;;
22107;SDS011;11220;48.812;9.128;2022-10-16T16:02:24;0.32;;;0.30;;
22107;SDS011;11220;48.812;9.128;2022-10-16T16:04:50;0.25;;;0.20;;
22107;SDS011;11220;48.812;9.128;2022-10-16T16:07:15;0.30;;;0.30;;
22107;SDS011;11220;48.812;9.128;2022-10-16T16:09:41;0.65;;;0.40;;
22107;SDS011;11220;48.812;9.128;2022-10-16T16:12:07;0.13;;;0.13;;
22107;SDS011;11220;48.812;9.128;2022-10-16T16:14:33;0.28;;;0.20;;
22107;SDS011;11220;48.812;9.128;2022-10-16T16:16:58;0.35;;;0.20;;
22107;SDS011;11220;48.812;9.128;2022-10-16T16:19:24;0.25;;;0.20;;
22107;SDS011;11220;48.812;9.128;2022-10-16T16:21:51;0.40;;;0.30;;
22107;SDS011;11220;48.812;9.128;2022-10-16T16:24:17;0.35;;;0.30;;
22107;SDS011;11220;48.812;9.128;2022-10-16T16:26:42;0.40;;;0.30;;
22107;SDS011;11220;48.812;9.128;2022-10-16T16:29:15;0.70;;;0.30;;
22107;SDS011;11220;48.812;9.128;2022-10-16T16:31:41;0.20;;;0.20;;
22107;SDS011;11220;48.812;9.128;2022-10-16T16:34:07;0.35;;;0.20;;
22107;SDS011;11220;48.812;9.128;2022-10-16T16:36:33;0.30;;;0.30;;
22107;SDS011;11220;48.812;9.128;2022-10-16T16:39:00;0.40;;;0.30;;
22107;SDS011;11220;48.812;9.128;2022-10-16T16:41:27;0.20;;;0.20;;
22107;SDS011;11220;48.812;9.128;2022-10-16T16:43:55;0.47;;;0.30;;
22107;SDS011;11220;48.812;9.128;2022-10-16T16:46:25;0.30;;;0.30;;
22107;SDS011;11220;48.812;9.128;2022-10-16T16:48:51;0.45;;;0.22;;
22107;SDS011;11220;48.812;9.128;2022-10-16T16:51:20;0.75;;;0.20;;
22107;SDS011;11220;48.812;9.128;2022-10-16T16:53:46;0.32;;;0.30;;
22107;SDS011;11220;48.812;9.128;2022-10-16T16:56:14;0.40;;;0.20;;
22107;SDS011;11220;48.812;9.128;2022-10-16T16:58:40;0.40;;;0.30;;
22107;SDS011;11220;48.812;9.128;2022-10-16T17:01:08;0.30;;;0.30;;
22107;SDS011;11220;48.812;9.128;2022-10-16T17:03:35;0.30;;;0.25;;
22107;SDS011;11220;48.812;9.128;2022-10-16T17:06:02;0.30;;;0.20;;
22107;SDS011;11220;48.812;9.128;2022-10-16T17:08:30;0.35;;;0.30;;
22107;SDS011;11220;48.812;9.128;2022-10-16T17:10:56;0.22;;;0.22;;